sensor_id;sensor_type;location;lat;lon;timestamp;P1;durP1;ratioP1;P2;durP2;ratioP2
39098;SDS011;24844;52.380;7.018;2022-11-14T00:00:50;128.57;;;51.83;;
39098;SDS011;24844;52.380;7.018;2022-11-14T00:03:16;141.85;;;54.40;;
39098;SDS011;24844;52.380;7.018;2022-11-14T00:05:42;123.25;;;50.00;;
39098;SDS011;24844;52.380;7.018;2022-11-14T00:08:17;137.30;;;54.15;;
39098;SDS011;24844;52.380;7.018;2022-11-14T00:10:47;133.90;;;52.28;;
39098;SDS011;24844;52.380;7.018;2022-11-14T00:13:15;147.68;;;56.03;;
39098;SDS011;24844;52.380;7.018;2022-11-14T00:15:42;134.63;;;52.05;;
39098;SDS011;24844;52.380;7.018;2022-11-14T00:18:08;132.27;;;51.03;;
39098;SDS011;24844;52.380;7.018;2022-11-14T00:20:33;149.48;;;54.30;;
39098;SDS011;24844;52.380;7.018;2022-11-14T00:22:59;129.80;;;50.92;;
39098;SDS011;24844;52.380;7.018;2022-11-14T00:25:25;146.20;;;53.10;;
39098;SDS011;24844;52.380;7.018;2022-11-14T00:27:50;133.30;;;51.25;;
39098;SDS011;24844;52.380;7.018;2022-11-14T00:30:16;144.60;;;53.70;;
39098;SDS011;24844;52.380;7.018;2022-11-14T00:32:42;153.23;;;53.20;;
39098;SDS011;24844;52.380;7.018;2022-11-14T00:35:07;170.07;;;59.33;;
39098;SDS011;24844;52.380;7.018;2022-11-14T00:37:33;166.80;;;56.92;;
39098;SDS011;24844;52.380;7.018;2022-11-14T00:39:59;171.73;;;57.67;;
39098;SDS011;24844;52.380;7.018;2022-11-14T00:42:24;175.10;;;57.28;;
39098;SDS011;24844;52.380;7.018;2022-11-14T00:44:50;170.45;;;57.17;;
39098;SDS011;24844;52.380;7.018;2022-11-14T00:47:16;127.15;;;46.50;;
39098;SDS011;24844;52.380;7.018;2022-11-14T00:49:41;152.07;;;52.75;;
39098;SDS011;24844;52.380;7.018;2022-11-14T00:52:07;142.27;;;51.70;;
39098;SDS011;24844;52.380;7.018;2022-11-14T00:54:32;175.15;;;55.53;;
39098;SDS011;24844;52.380;7.018;2022-11-14T00:56:58;191.43;;;62.42;;
39098;SDS011;24844;52.380;7.018;2022-11-14T00:59:23;190.30;;;61.92;;
39098;SDS011;24844;52.380;7.018;2022-11-14T01:01:49;210.55;;;62.55;;
39098;SDS011;24844;52.380;7.018;2022-11-14T01:04:15;195.65;;;62.75;;
39098;SDS011;24844;52.380;7.018;2022-11-14T01:06:40;219.07;;;67.55;;
39098;SDS011;24844;52.380;7.018;2022-11-14T01:09:06;216.68;;;66.93;;
39098;SDS011;24844;52.380;7.018;2022-11-14T01:11:32;232.38;;;69.50;;
39098;SDS011;24844;52.380;7.018;2022-11-14T01:13:57;190.20;;;57.42;;
39098;SDS011;24844;52.380;7.018;2022-11-14T01:16:23;206.93;;;60.80;;
39098;SDS011;24844;52.380;7.018;2022-11-14T01:18:48;221.73;;;65.00;;
39098;SDS011;24844;52.380;7.018;2022-11-14T01:21:14;217.32;;;62.63;;
39098;SDS011;24844;52.380;7.018;2022-11-14T01:23:40;226.15;;;67.05;;
39098;SDS011;24844;52.380;7.018;2022-11-14T01:26:12;232.07;;;67.35;;
39098;SDS011;24844;52.380;7.018;2022-11-14T01:28:38;215.82;;;61.28;;
39098;SDS011;24844;52.380;7.018;2022-11-14T01:31:15;225.88;;;60.83;;
39098;SDS011;24844;52.380;7.018;2022-11-14T01:33:47;229.90;;;64.05;;
39098;SDS011;24844;52.380;7.018;2022-11-14T01:36:14;177.52;;;55.03;;
39098;SDS011;24844;52.380;7.018;2022-11-14T01:38:40;177.35;;;56.80;;
39098;SDS011;24844;52.380;7.018;2022-11-14T01:41:06;199.75;;;58.88;;
39098;SDS011;24844;52.380;7.018;2022-11-14T01:43:33;206.13;;;59.97;;
39098;SDS011;24844;52.380;7.018;2022-11-14T01:51:33;206.07;;;59.72;;
39098;SDS011;24844;52.380;7.018;2022-11-14T01:54:04;249.20;;;66.53;;
39098;SDS011;24844;52.380;7.018;2022-11-14T01:56:45;246.32;;;69.57;;
39098;SDS011;24844;52.380;7.018;2022-11-14T01:59:17;264.98;;;71.95;;
39098;SDS011;24844;52.380;7.018;2022-11-14T02:01:49;259.20;;;67.95;;
39098;SDS011;24844;52.380;7.018;2022-11-14T02:04:17;220.63;;;61.85;;
39098;SDS011;24844;52.380;7.018;2022-11-14T02:06:53;262.65;;;68.72;;
39098;SDS011;24844;52.380;7.018;2022-11-14T02:09:21;232.18;;;65.90;;
39098;SDS011;24844;52.380;7.018;2022-11-14T02:11:47;264.45;;;68.47;;
39098;SDS011;24844;52.380;7.018;2022-11-14T02:14:14;165.20;;;52.38;;
39098;SDS011;24844;52.380;7.018;2022-11-14T02:16:40;157.13;;;52.40;;
39098;SDS011;24844;52.380;7.018;2022-11-14T02:19:06;215.13;;;61.63;;
39098;SDS011;24844;52.380;7.018;2022-11-14T02:21:33;250.93;;;69.07;;
39098;SDS011;24844;52.380;7.018;2022-11-14T02:23:58;168.98;;;54.00;;
39098;SDS011;24844;52.380;7.018;2022-11-14T02:26:24;249.45;;;68.00;;
39098;SDS011;24844;52.380;7.018;2022-11-14T02:28:49;212.23;;;63.05;;
39098;SDS011;24844;52.380;7.018;2022-11-14T02:31:15;230.50;;;66.00;;
39098;SDS011;24844;52.380;7.018;2022-11-14T02:33:42;221.13;;;61.83;;
39098;SDS011;24844;52.380;7.018;2022-11-14T02:36:08;175.05;;;56.10;;
39098;SDS011;24844;52.380;7.018;2022-11-14T02:38:33;165.90;;;53.47;;
39098;SDS011;24844;52.380;7.018;2022-11-14T02:40:59;193.60;;;58.03;;
39098;SDS011;24844;52.380;7.018;2022-11-14T02:43:25;164.45;;;54.88;;
39098;SDS011;24844;52.380;7.018;2022-11-14T02:45:51;162.18;;;53.50;;
39098;SDS011;24844;52.380;7.018;2022-11-14T02:48:17;173.25;;;54.05;;
39098;SDS011;24844;52.380;7.018;2022-11-14T02:50:42;224.35;;;61.35;;
39098;SDS011;24844;52.380;7.018;2022-11-14T02:53:08;227.32;;;62.38;;
39098;SDS011;24844;52.380;7.018;2022-11-14T02:55:34;177.75;;;54.95;;
39098;SDS011;24844;52.380;7.018;2022-11-14T02:58:00;223.85;;;62.85;;
39098;SDS011;24844;52.380;7.018;2022-11-14T03:00:25;224.65;;;63.47;;
39098;SDS011;24844;52.380;7.018;2022-11-14T03:02:51;222.50;;;61.55;;
39098;SDS011;24844;52.380;7.018;2022-11-14T03:05:18;225.68;;;64.85;;
39098;SDS011;24844;52.380;7.018;2022-11-14T03:07:44;239.95;;;65.70;;
39098;SDS011;24844;52.380;7.018;2022-11-14T03:10:09;218.43;;;60.67;;
39098;SDS011;24844;52.380;7.018;2022-11-14T03:12:35;201.77;;;57.05;;
39098;SDS011;24844;52.380;7.018;2022-11-14T03:15:02;202.85;;;58.83;;
39098;SDS011;24844;52.380;7.018;2022-11-14T03:17:32;212.95;;;58.92;;
39098;SDS011;24844;52.380;7.018;2022-11-14T03:19:58;221.23;;;58.38;;
39098;SDS011;24844;52.380;7.018;2022-11-14T03:22:24;222.48;;;58.75;;
39098;SDS011;24844;52.380;7.018;2022-11-14T03:24:49;264.20;;;68.65;;
39098;SDS011;24844;52.380;7.018;2022-11-14T03:27:15;249.77;;;64.18;;
39098;SDS011;24844;52.380;7.018;2022-11-14T03:29:40;221.85;;;59.95;;
39098;SDS011;24844;52.380;7.018;2022-11-14T03:32:06;231.90;;;58.75;;
39098;SDS011;24844;52.380;7.018;2022-11-14T03:34:31;204.45;;;58.42;;
39098;SDS011;24844;52.380;7.018;2022-11-14T03:36:57;202.27;;;55.35;;
39098;SDS011;24844;52.380;7.018;2022-11-14T03:39:24;177.30;;;51.03;;
39098;SDS011;24844;52.380;7.018;2022-11-14T03:41:50;192.55;;;55.63;;
39098;SDS011;24844;52.380;7.018;2022-11-14T03:44:16;232.07;;;59.92;;
39098;SDS011;24844;52.380;7.018;2022-11-14T03:46:41;203.40;;;54.53;;
39098;SDS011;24844;52.380;7.018;2022-11-14T03:49:07;216.30;;;56.72;;
39098;SDS011;24844;52.380;7.018;2022-11-14T03:51:33;215.93;;;58.00;;
39098;SDS011;24844;52.380;7.018;2022-11-14T03:53:58;213.43;;;57.35;;
39098;SDS011;24844;52.380;7.018;2022-11-14T03:56:24;187.90;;;51.95;;
39098;SDS011;24844;52.380;7.018;2022-11-14T03:58:49;222.93;;;59.42;;
39098;SDS011;24844;52.380;7.018;2022-11-14T04:01:15;219.45;;;60.30;;
39098;SDS011;24844;52.380;7.018;2022-11-14T04:03:40;217.32;;;58.53;;
39098;SDS011;24844;52.380;7.018;2022-11-14T04:06:06;204.82;;;57.30;;
39098;SDS011;24844;52.380;7.018;2022-11-14T04:08:32;213.30;;;57.63;;
39098;SDS011;24844;52.380;7.018;2022-11-14T04:10:57;222.35;;;59.45;;
39098;SDS011;24844;52.380;7.018;2022-11-14T04:13:23;257.30;;;67.72;;
39098;SDS011;24844;52.380;7.018;2022-11-14T04:15:55;212.07;;;58.58;;
39098;SDS011;24844;52.380;7.018;2022-11-14T04:18:21;239.63;;;60.17;;
39098;SDS011;24844;52.380;7.018;2022-11-14T04:20:47;243.93;;;64.03;;
39098;SDS011;24844;52.380;7.018;2022-11-14T04:23:13;192.57;;;53.25;;
39098;SDS011;24844;52.380;7.018;2022-11-14T04:25:38;241.18;;;63.13;;
39098;SDS011;24844;52.380;7.018;2022-11-14T04:28:04;272.48;;;71.10;;
39098;SDS011;24844;52.380;7.018;2022-11-14T04:30:29;221.88;;;59.25;;
39098;SDS011;24844;52.380;7.018;2022-11-14T04:32:55;239.45;;;63.35;;
39098;SDS011;24844;52.380;7.018;2022-11-14T04:35:20;261.23;;;68.32;;
39098;SDS011;24844;52.380;7.018;2022-11-14T04:37:46;232.50;;;63.83;;
39098;SDS011;24844;52.380;7.018;2022-11-14T04:40:12;237.02;;;62.83;;
39098;SDS011;24844;52.380;7.018;2022-11-14T04:42:37;266.17;;;70.18;;
39098;SDS011;24844;52.380;7.018;2022-11-14T04:45:03;227.05;;;63.78;;
39098;SDS011;24844;52.380;7.018;2022-11-14T04:47:29;221.95;;;60.50;;
39098;SDS011;24844;52.380;7.018;2022-11-14T04:49:54;209.07;;;56.95;;
39098;SDS011;24844;52.380;7.018;2022-11-14T04:52:20;252.20;;;66.75;;
39098;SDS011;24844;52.380;7.018;2022-11-14T04:54:45;226.93;;;58.33;;
39098;SDS011;24844;52.380;7.018;2022-11-14T04:57:11;226.23;;;61.53;;
39098;SDS011;24844;52.380;7.018;2022-11-14T04:59:36;167.75;;;51.53;;
39098;SDS011;24844;52.380;7.018;2022-11-14T05:02:02;254.55;;;63.90;;
39098;SDS011;24844;52.380;7.018;2022-11-14T05:04:27;240.20;;;66.07;;
39098;SDS011;24844;52.380;7.018;2022-11-14T05:06:53;207.18;;;58.13;;
39098;SDS011;24844;52.380;7.018;2022-11-14T05:09:19;195.57;;;56.25;;
39098;SDS011;24844;52.380;7.018;2022-11-14T05:11:44;153.30;;;49.47;;
39098;SDS011;24844;52.380;7.018;2022-11-14T05:14:10;220.30;;;61.88;;
39098;SDS011;24844;52.380;7.018;2022-11-14T05:16:35;249.32;;;69.72;;
39098;SDS011;24844;52.380;7.018;2022-11-14T05:19:01;219.50;;;61.95;;
39098;SDS011;24844;52.380;7.018;2022-11-14T05:21:26;252.63;;;67.20;;
39098;SDS011;24844;52.380;7.018;2022-11-14T05:23:52;255.13;;;65.93;;
39098;SDS011;24844;52.380;7.018;2022-11-14T05:26:17;223.60;;;60.60;;
39098;SDS011;24844;52.380;7.018;2022-11-14T05:28:43;252.98;;;66.72;;
39098;SDS011;24844;52.380;7.018;2022-11-14T05:31:10;228.88;;;63.45;;
39098;SDS011;24844;52.380;7.018;2022-11-14T05:33:43;212.82;;;61.45;;
39098;SDS011;24844;52.380;7.018;2022-11-14T05:36:11;208.73;;;62.15;;
39098;SDS011;24844;52.380;7.018;2022-11-14T05:38:38;226.70;;;63.00;;
39098;SDS011;24844;52.380;7.018;2022-11-14T05:41:05;223.48;;;61.40;;
39098;SDS011;24844;52.380;7.018;2022-11-14T05:43:35;239.95;;;67.55;;
39098;SDS011;24844;52.380;7.018;2022-11-14T05:46:01;191.00;;;57.10;;
39098;SDS011;24844;52.380;7.018;2022-11-14T05:48:29;236.80;;;61.72;;
39098;SDS011;24844;52.380;7.018;2022-11-14T05:50:55;228.02;;;59.67;;
39098;SDS011;24844;52.380;7.018;2022-11-14T05:53:25;208.27;;;58.40;;
39098;SDS011;24844;52.380;7.018;2022-11-14T05:55:52;239.63;;;64.82;;
39098;SDS011;24844;52.380;7.018;2022-11-14T05:58:18;234.73;;;63.85;;
39098;SDS011;24844;52.380;7.018;2022-11-14T06:00:44;218.73;;;58.15;;
39098;SDS011;24844;52.380;7.018;2022-11-14T06:03:09;247.95;;;68.35;;
39098;SDS011;24844;52.380;7.018;2022-11-14T06:05:35;216.20;;;60.72;;
39098;SDS011;24844;52.380;7.018;2022-11-14T06:08:01;255.88;;;68.45;;
39098;SDS011;24844;52.380;7.018;2022-11-14T06:10:27;269.95;;;70.65;;
39098;SDS011;24844;52.380;7.018;2022-11-14T06:12:53;238.70;;;65.72;;
39098;SDS011;24844;52.380;7.018;2022-11-14T06:15:19;236.85;;;62.13;;
39098;SDS011;24844;52.380;7.018;2022-11-14T06:17:45;261.50;;;66.68;;
39098;SDS011;24844;52.380;7.018;2022-11-14T06:20:11;252.15;;;66.30;;
39098;SDS011;24844;52.380;7.018;2022-11-14T06:22:37;248.98;;;61.28;;
39098;SDS011;24844;52.380;7.018;2022-11-14T06:25:06;217.43;;;57.42;;
39098;SDS011;24844;52.380;7.018;2022-11-14T06:27:33;212.80;;;58.55;;
39098;SDS011;24844;52.380;7.018;2022-11-14T06:29:58;234.68;;;64.55;;
39098;SDS011;24844;52.380;7.018;2022-11-14T06:32:24;215.70;;;60.72;;
39098;SDS011;24844;52.380;7.018;2022-11-14T06:34:49;191.32;;;55.08;;
39098;SDS011;24844;52.380;7.018;2022-11-14T06:37:15;243.57;;;65.38;;
39098;SDS011;24844;52.380;7.018;2022-11-14T06:39:40;177.38;;;53.83;;
39098;SDS011;24844;52.380;7.018;2022-11-14T06:42:06;190.27;;;56.95;;
39098;SDS011;24844;52.380;7.018;2022-11-14T06:44:31;232.50;;;56.83;;
39098;SDS011;24844;52.380;7.018;2022-11-14T06:46:57;376.58;;;58.00;;
39098;SDS011;24844;52.380;7.018;2022-11-14T06:49:23;271.55;;;61.80;;
39098;SDS011;24844;52.380;7.018;2022-11-14T06:54:17;148.52;;;49.17;;
39098;SDS011;24844;52.380;7.018;2022-11-14T06:56:43;156.48;;;51.65;;
39098;SDS011;24844;52.380;7.018;2022-11-14T06:59:09;183.82;;;55.35;;
39098;SDS011;24844;52.380;7.018;2022-11-14T07:01:35;189.95;;;56.47;;
39098;SDS011;24844;52.380;7.018;2022-11-14T07:04:00;200.93;;;56.78;;
39098;SDS011;24844;52.380;7.018;2022-11-14T07:06:26;196.93;;;59.13;;
39098;SDS011;24844;52.380;7.018;2022-11-14T07:08:54;166.90;;;53.55;;
39098;SDS011;24844;52.380;7.018;2022-11-14T07:11:24;205.20;;;58.90;;
39098;SDS011;24844;52.380;7.018;2022-11-14T07:13:59;191.52;;;56.47;;
39098;SDS011;24844;52.380;7.018;2022-11-14T07:16:30;178.55;;;54.10;;
39098;SDS011;24844;52.380;7.018;2022-11-14T07:18:59;175.07;;;51.80;;
39098;SDS011;24844;52.380;7.018;2022-11-14T07:21:26;178.23;;;52.50;;
39098;SDS011;24844;52.380;7.018;2022-11-14T07:23:53;203.55;;;58.97;;
39098;SDS011;24844;52.380;7.018;2022-11-14T07:26:19;188.50;;;56.47;;
39098;SDS011;24844;52.380;7.018;2022-11-14T07:28:45;144.55;;;50.08;;
39098;SDS011;24844;52.380;7.018;2022-11-14T07:31:12;183.10;;;59.53;;
39098;SDS011;24844;52.380;7.018;2022-11-14T07:33:39;201.68;;;61.20;;
39098;SDS011;24844;52.380;7.018;2022-11-14T07:36:06;162.75;;;52.20;;
39098;SDS011;24844;52.380;7.018;2022-11-14T07:38:33;203.68;;;60.17;;
39098;SDS011;24844;52.380;7.018;2022-11-14T07:41:21;207.48;;;61.42;;
39098;SDS011;24844;52.380;7.018;2022-11-14T07:43:45;209.93;;;62.05;;
39098;SDS011;24844;52.380;7.018;2022-11-14T07:46:12;194.05;;;60.85;;
39098;SDS011;24844;52.380;7.018;2022-11-14T07:48:39;164.70;;;54.25;;
39098;SDS011;24844;52.380;7.018;2022-11-14T07:51:05;216.40;;;65.43;;
39098;SDS011;24844;52.380;7.018;2022-11-14T07:53:33;185.13;;;59.00;;
39098;SDS011;24844;52.380;7.018;2022-11-14T07:56:05;165.40;;;54.03;;
39098;SDS011;24844;52.380;7.018;2022-11-14T07:58:35;193.30;;;60.30;;
39098;SDS011;24844;52.380;7.018;2022-11-14T08:01:02;190.32;;;61.50;;
39098;SDS011;24844;52.380;7.018;2022-11-14T08:03:29;154.15;;;52.95;;
39098;SDS011;24844;52.380;7.018;2022-11-14T08:06:10;161.18;;;54.45;;
39098;SDS011;24844;52.380;7.018;2022-11-14T08:08:37;174.13;;;56.97;;
39098;SDS011;24844;52.380;7.018;2022-11-14T08:11:03;152.32;;;53.38;;
39098;SDS011;24844;52.380;7.018;2022-11-14T08:13:29;162.70;;;55.75;;
39098;SDS011;24844;52.380;7.018;2022-11-14T08:15:55;155.18;;;55.13;;
39098;SDS011;24844;52.380;7.018;2022-11-14T08:18:21;146.60;;;53.20;;
39098;SDS011;24844;52.380;7.018;2022-11-14T08:20:46;129.07;;;49.88;;
39098;SDS011;24844;52.380;7.018;2022-11-14T08:23:12;126.72;;;50.70;;
39098;SDS011;24844;52.380;7.018;2022-11-14T08:25:38;125.15;;;51.50;;
39098;SDS011;24844;52.380;7.018;2022-11-14T08:28:04;111.30;;;46.67;;
39098;SDS011;24844;52.380;7.018;2022-11-14T08:30:30;102.18;;;46.22;;
39098;SDS011;24844;52.380;7.018;2022-11-14T08:32:55;100.35;;;43.70;;
39098;SDS011;24844;52.380;7.018;2022-11-14T08:35:21;103.07;;;48.03;;
39098;SDS011;24844;52.380;7.018;2022-11-14T08:37:47;73.63;;;37.72;;
39098;SDS011;24844;52.380;7.018;2022-11-14T08:40:13;74.00;;;35.88;;
39098;SDS011;24844;52.380;7.018;2022-11-14T08:42:38;64.32;;;34.67;;
39098;SDS011;24844;52.380;7.018;2022-11-14T08:45:04;54.78;;;32.45;;
39098;SDS011;24844;52.380;7.018;2022-11-14T08:47:30;50.03;;;30.50;;
39098;SDS011;24844;52.380;7.018;2022-11-14T08:49:56;47.72;;;28.02;;
39098;SDS011;24844;52.380;7.018;2022-11-14T08:52:22;46.30;;;28.45;;
39098;SDS011;24844;52.380;7.018;2022-11-14T08:54:47;43.22;;;27.08;;
39098;SDS011;24844;52.380;7.018;2022-11-14T08:57:13;46.78;;;29.95;;
39098;SDS011;24844;52.380;7.018;2022-11-14T08:59:39;43.70;;;27.83;;
39098;SDS011;24844;52.380;7.018;2022-11-14T09:02:07;41.10;;;26.42;;
39098;SDS011;24844;52.380;7.018;2022-11-14T09:04:34;41.08;;;27.48;;
39098;SDS011;24844;52.380;7.018;2022-11-14T09:07:00;39.47;;;26.15;;
39098;SDS011;24844;52.380;7.018;2022-11-14T09:09:25;39.70;;;27.60;;
39098;SDS011;24844;52.380;7.018;2022-11-14T09:11:51;36.08;;;25.02;;
39098;SDS011;24844;52.380;7.018;2022-11-14T09:14:16;38.92;;;27.30;;
39098;SDS011;24844;52.380;7.018;2022-11-14T09:16:42;37.33;;;25.80;;
39098;SDS011;24844;52.380;7.018;2022-11-14T09:19:07;41.05;;;26.60;;
39098;SDS011;24844;52.380;7.018;2022-11-14T09:21:33;35.40;;;24.48;;
39098;SDS011;24844;52.380;7.018;2022-11-14T09:23:58;39.53;;;26.00;;
39098;SDS011;24844;52.380;7.018;2022-11-14T09:26:24;37.80;;;26.92;;
39098;SDS011;24844;52.380;7.018;2022-11-14T09:28:49;34.53;;;23.88;;
39098;SDS011;24844;52.380;7.018;2022-11-14T09:31:15;38.80;;;25.77;;
39098;SDS011;24844;52.380;7.018;2022-11-14T09:33:40;34.65;;;24.52;;
39098;SDS011;24844;52.380;7.018;2022-11-14T09:36:07;35.80;;;25.77;;
39098;SDS011;24844;52.380;7.018;2022-11-14T09:38:34;37.95;;;26.33;;
39098;SDS011;24844;52.380;7.018;2022-11-14T09:46:43;36.90;;;24.25;;
39098;SDS011;24844;52.380;7.018;2022-11-14T09:49:24;34.85;;;23.65;;
39098;SDS011;24844;52.380;7.018;2022-11-14T09:52:02;36.22;;;26.00;;
39098;SDS011;24844;52.380;7.018;2022-11-14T09:55:00;33.33;;;22.02;;
39098;SDS011;24844;52.380;7.018;2022-11-14T09:57:33;36.17;;;22.48;;
39098;SDS011;24844;52.380;7.018;2022-11-14T09:59:58;33.33;;;22.00;;
39098;SDS011;24844;52.380;7.018;2022-11-14T10:26:14;31.90;;;21.27;;
39098;SDS011;24844;52.380;7.018;2022-11-14T10:36:59;30.58;;;22.23;;
39098;SDS011;24844;52.380;7.018;2022-11-14T10:39:43;28.83;;;20.60;;
39098;SDS011;24844;52.380;7.018;2022-11-14T10:42:38;28.88;;;20.92;;
39098;SDS011;24844;52.380;7.018;2022-11-14T10:47:48;27.85;;;20.05;;
39098;SDS011;24844;52.380;7.018;2022-11-14T10:50:19;30.17;;;19.42;;
39098;SDS011;24844;52.380;7.018;2022-11-14T10:52:47;27.45;;;18.73;;
39098;SDS011;24844;52.380;7.018;2022-11-14T10:55:18;28.48;;;20.98;;
39098;SDS011;24844;52.380;7.018;2022-11-14T10:57:45;26.50;;;17.92;;
39098;SDS011;24844;52.380;7.018;2022-11-14T11:00:12;25.52;;;17.55;;
39098;SDS011;24844;52.380;7.018;2022-11-14T11:02:47;24.65;;;17.60;;
39098;SDS011;24844;52.380;7.018;2022-11-14T11:05:23;25.98;;;20.40;;
39098;SDS011;24844;52.380;7.018;2022-11-14T11:07:51;26.60;;;16.73;;
39098;SDS011;24844;52.380;7.018;2022-11-14T11:10:38;23.63;;;17.30;;
39098;SDS011;24844;52.380;7.018;2022-11-14T11:13:33;24.65;;;17.40;;
39098;SDS011;24844;52.380;7.018;2022-11-14T11:16:01;24.00;;;19.45;;
39098;SDS011;24844;52.380;7.018;2022-11-14T11:18:29;23.35;;;18.58;;
39098;SDS011;24844;52.380;7.018;2022-11-14T11:21:00;24.42;;;17.70;;
39098;SDS011;24844;52.380;7.018;2022-11-14T11:23:27;24.50;;;17.27;;
39098;SDS011;24844;52.380;7.018;2022-11-14T11:28:31;26.88;;;17.40;;
39098;SDS011;24844;52.380;7.018;2022-11-14T11:31:02;22.95;;;17.10;;
39098;SDS011;24844;52.380;7.018;2022-11-14T11:33:30;25.02;;;17.33;;
39098;SDS011;24844;52.380;7.018;2022-11-14T11:36:01;28.42;;;19.65;;
39098;SDS011;24844;52.380;7.018;2022-11-14T11:38:42;27.25;;;18.40;;
39098;SDS011;24844;52.380;7.018;2022-11-14T11:41:17;26.48;;;18.83;;
39098;SDS011;24844;52.380;7.018;2022-11-14T11:43:56;25.35;;;17.63;;
39098;SDS011;24844;52.380;7.018;2022-11-14T11:52:11;24.35;;;17.40;;
39098;SDS011;24844;52.380;7.018;2022-11-14T11:54:59;27.92;;;17.00;;
39098;SDS011;24844;52.380;7.018;2022-11-14T11:57:34;23.10;;;16.42;;
39098;SDS011;24844;52.380;7.018;2022-11-14T12:00:15;24.08;;;14.80;;
39098;SDS011;24844;52.380;7.018;2022-11-14T12:02:45;20.65;;;12.35;;
39098;SDS011;24844;52.380;7.018;2022-11-14T12:05:15;21.58;;;14.38;;
39098;SDS011;24844;52.380;7.018;2022-11-14T12:07:49;23.35;;;15.98;;
39098;SDS011;24844;52.380;7.018;2022-11-14T12:10:25;22.17;;;13.80;;
39098;SDS011;24844;52.380;7.018;2022-11-14T12:21:09;24.13;;;13.63;;
39098;SDS011;24844;52.380;7.018;2022-11-14T12:32:10;20.85;;;13.70;;
39098;SDS011;24844;52.380;7.018;2022-11-14T12:34:43;22.65;;;16.15;;
39098;SDS011;24844;52.380;7.018;2022-11-14T12:37:19;16.63;;;7.78;;
39098;SDS011;24844;52.380;7.018;2022-11-14T12:42:47;22.70;;;15.80;;
39098;SDS011;24844;52.380;7.018;2022-11-14T12:50:47;21.02;;;12.15;;
39098;SDS011;24844;52.380;7.018;2022-11-14T13:07:49;20.38;;;14.43;;
39098;SDS011;24844;52.380;7.018;2022-11-14T13:10:37;20.52;;;15.77;;
39098;SDS011;24844;52.380;7.018;2022-11-14T13:15:59;20.60;;;15.25;;
39098;SDS011;24844;52.380;7.018;2022-11-14T13:18:52;21.05;;;14.25;;
39098;SDS011;24844;52.380;7.018;2022-11-14T13:27:23;21.80;;;13.63;;
39098;SDS011;24844;52.380;7.018;2022-11-14T13:29:56;18.88;;;14.57;;
39098;SDS011;24844;52.380;7.018;2022-11-14T13:35:04;19.17;;;14.27;;
39098;SDS011;24844;52.380;7.018;2022-11-14T13:40:48;15.23;;;7.30;;
39098;SDS011;24844;52.380;7.018;2022-11-14T13:52:16;19.20;;;12.45;;
39098;SDS011;24844;52.380;7.018;2022-11-14T13:54:48;18.00;;;14.55;;
39098;SDS011;24844;52.380;7.018;2022-11-14T14:03:15;18.52;;;13.73;;
39098;SDS011;24844;52.380;7.018;2022-11-14T14:11:19;18.13;;;14.13;;
39098;SDS011;24844;52.380;7.018;2022-11-14T14:16:27;17.20;;;11.65;;
39098;SDS011;24844;52.380;7.018;2022-11-14T14:19:05;18.33;;;12.38;;
39098;SDS011;24844;52.380;7.018;2022-11-14T14:21:38;15.88;;;11.80;;
39098;SDS011;24844;52.380;7.018;2022-11-14T14:29:28;15.63;;;12.32;;
39098;SDS011;24844;52.380;7.018;2022-11-14T14:32:13;14.93;;;11.50;;
39098;SDS011;24844;52.380;7.018;2022-11-14T14:34:40;15.10;;;12.13;;
39098;SDS011;24844;52.380;7.018;2022-11-14T14:37:16;17.45;;;13.65;;
39098;SDS011;24844;52.380;7.018;2022-11-14T14:39:54;16.58;;;12.40;;
39098;SDS011;24844;52.380;7.018;2022-11-14T14:42:25;16.63;;;12.73;;
39098;SDS011;24844;52.380;7.018;2022-11-14T14:45:01;16.88;;;12.43;;
39098;SDS011;24844;52.380;7.018;2022-11-14T14:47:32;19.52;;;13.32;;
39098;SDS011;24844;52.380;7.018;2022-11-14T14:50:12;15.63;;;12.25;;
39098;SDS011;24844;52.380;7.018;2022-11-14T14:52:45;16.35;;;12.65;;
39098;SDS011;24844;52.380;7.018;2022-11-14T14:55:28;16.25;;;12.60;;
39098;SDS011;24844;52.380;7.018;2022-11-14T14:58:11;18.35;;;13.23;;
39098;SDS011;24844;52.380;7.018;2022-11-14T15:00:50;16.20;;;13.20;;
39098;SDS011;24844;52.380;7.018;2022-11-14T15:03:18;17.52;;;13.40;;
39098;SDS011;24844;52.380;7.018;2022-11-14T15:05:44;17.98;;;13.73;;
39098;SDS011;24844;52.380;7.018;2022-11-14T15:08:10;14.90;;;11.80;;
39098;SDS011;24844;52.380;7.018;2022-11-14T15:10:37;16.33;;;13.02;;
39098;SDS011;24844;52.380;7.018;2022-11-14T15:13:04;14.65;;;11.73;;
39098;SDS011;24844;52.380;7.018;2022-11-14T15:15:30;17.83;;;12.77;;
39098;SDS011;24844;52.380;7.018;2022-11-14T15:17:57;17.25;;;13.20;;
39098;SDS011;24844;52.380;7.018;2022-11-14T15:20:29;18.65;;;12.70;;
39098;SDS011;24844;52.380;7.018;2022-11-14T15:23:05;16.50;;;12.77;;
39098;SDS011;24844;52.380;7.018;2022-11-14T15:25:36;16.63;;;11.90;;
39098;SDS011;24844;52.380;7.018;2022-11-14T15:28:02;17.05;;;12.75;;
39098;SDS011;24844;52.380;7.018;2022-11-14T15:32:56;17.83;;;13.55;;
39098;SDS011;24844;52.380;7.018;2022-11-14T15:35:29;16.02;;;11.88;;
39098;SDS011;24844;52.380;7.018;2022-11-14T15:40:27;16.65;;;13.45;;
39098;SDS011;24844;52.380;7.018;2022-11-14T15:42:53;17.02;;;13.50;;
39098;SDS011;24844;52.380;7.018;2022-11-14T15:45:26;16.40;;;13.40;;
39098;SDS011;24844;52.380;7.018;2022-11-14T15:48:02;17.40;;;13.05;;
39098;SDS011;24844;52.380;7.018;2022-11-14T15:50:38;19.25;;;13.70;;
39098;SDS011;24844;52.380;7.018;2022-11-14T15:53:05;15.52;;;12.35;;
39098;SDS011;24844;52.380;7.018;2022-11-14T15:55:40;16.55;;;12.57;;
39098;SDS011;24844;52.380;7.018;2022-11-14T15:58:09;17.33;;;12.57;;
39098;SDS011;24844;52.380;7.018;2022-11-14T16:00:36;16.98;;;12.35;;
39098;SDS011;24844;52.380;7.018;2022-11-14T16:03:15;18.98;;;14.00;;
39098;SDS011;24844;52.380;7.018;2022-11-14T16:05:43;16.52;;;13.77;;
39098;SDS011;24844;52.380;7.018;2022-11-14T16:08:10;16.65;;;12.80;;
39098;SDS011;24844;52.380;7.018;2022-11-14T16:10:36;19.45;;;13.25;;
39098;SDS011;24844;52.380;7.018;2022-11-14T16:13:02;18.75;;;13.85;;
39098;SDS011;24844;52.380;7.018;2022-11-14T16:15:27;19.75;;;14.43;;
39098;SDS011;24844;52.380;7.018;2022-11-14T16:17:53;16.65;;;12.80;;
39098;SDS011;24844;52.380;7.018;2022-11-14T16:20:20;17.83;;;13.88;;
39098;SDS011;24844;52.380;7.018;2022-11-14T16:22:48;20.00;;;14.75;;
39098;SDS011;24844;52.380;7.018;2022-11-14T16:25:18;21.80;;;15.23;;
39098;SDS011;24844;52.380;7.018;2022-11-14T16:27:46;17.45;;;13.25;;
39098;SDS011;24844;52.380;7.018;2022-11-14T16:30:13;18.73;;;14.13;;
39098;SDS011;24844;52.380;7.018;2022-11-14T16:32:40;17.27;;;13.45;;
39098;SDS011;24844;52.380;7.018;2022-11-14T16:35:20;18.50;;;14.23;;
39098;SDS011;24844;52.380;7.018;2022-11-14T16:37:47;19.20;;;14.13;;
39098;SDS011;24844;52.380;7.018;2022-11-14T16:40:17;18.42;;;14.05;;
39098;SDS011;24844;52.380;7.018;2022-11-14T16:42:49;16.27;;;13.55;;
39098;SDS011;24844;52.380;7.018;2022-11-14T16:45:15;18.73;;;13.93;;